createdAt,value
2022-12-18T00:01:35.871Z,19.77
2022-12-18T00:04:07.416Z,17.15
2022-12-18T00:06:36.455Z,20.80
2022-12-18T00:09:05.134Z,17.92
2022-12-18T00:11:32.990Z,18.00
2022-12-18T00:14:01.539Z,17.25
2022-12-18T00:16:31.276Z,18.33
2022-12-18T00:18:58.728Z,17.25
2022-12-18T00:21:26.507Z,16.67
2022-12-18T00:23:53.752Z,16.48
2022-12-18T00:26:30.712Z,16.38
2022-12-18T00:29:02.021Z,16.58
2022-12-18T00:31:29.603Z,17.90
2022-12-18T00:33:58.132Z,19.42
2022-12-18T00:36:31.005Z,18.30
2022-12-18T00:39:00.018Z,18.08
2022-12-18T00:41:46.897Z,18.33
2022-12-18T00:44:17.644Z,17.55
2022-12-18T00:46:46.280Z,13.52
2022-12-18T00:49:13.393Z,17.58
2022-12-18T00:51:40.823Z,14.85
2022-12-18T00:54:08.004Z,17.35
2022-12-18T00:56:45.752Z,15.85
2022-12-18T00:59:16.177Z,16.37
2022-12-18T01:01:43.724Z,16.02
2022-12-18T01:04:11.004Z,16.17
2022-12-18T01:06:38.072Z,16.35
2022-12-18T01:09:05.607Z,15.30
2022-12-18T01:11:32.686Z,16.30
2022-12-18T01:14:01.033Z,16.25
2022-12-18T01:16:28.461Z,16.48
2022-12-18T01:18:56.518Z,17.63
2022-12-18T01:21:25.121Z,18.05
2022-12-18T01:23:57.785Z,16.40
2022-12-18T01:26:26.896Z,17.77
2022-12-18T01:28:58.895Z,16.88
2022-12-18T01:31:29.599Z,19.15
2022-12-18T01:33:57.293Z,16.50
2022-12-18T01:36:36.690Z,17.75
2022-12-18T01:39:12.147Z,19.33
2022-12-18T01:41:58.187Z,17.08
2022-12-18T01:45:05.338Z,17.77
2022-12-18T01:47:56.285Z,18.15
2022-12-18T01:50:25.492Z,16.88
2022-12-18T01:53:22.753Z,18.00
2022-12-18T01:55:53.320Z,17.23
2022-12-18T01:58:25.459Z,11.00
2022-12-18T02:00:52.663Z,17.83
2022-12-18T02:03:19.850Z,15.77
2022-12-18T02:06:13.719Z,16.52
2022-12-18T02:09:15.022Z,15.75
2022-12-18T02:11:57.488Z,19.48
2022-12-18T02:14:58.217Z,18.88
2022-12-18T02:17:33.006Z,15.63
2022-12-18T02:20:18.096Z,17.00
2022-12-18T02:23:28.489Z,16.38
2022-12-18T02:26:40.231Z,16.42
2022-12-18T02:31:57.444Z,16.42
2022-12-18T02:34:30.431Z,17.15
2022-12-18T02:37:01.829Z,15.52
2022-12-18T02:41:59.700Z,15.80
2022-12-18T02:44:26.908Z,17.17
2022-12-18T02:46:55.441Z,16.38
2022-12-18T02:49:28.872Z,17.75
2022-12-18T02:52:35.658Z,17.10
2022-12-18T02:56:02.050Z,15.55
2022-12-18T03:02:13.842Z,15.77
2022-12-18T03:05:01.830Z,15.27
2022-12-18T03:07:59.968Z,16.10
2022-12-18T03:10:32.190Z,15.65
2022-12-18T03:13:16.026Z,16.65
2022-12-18T03:15:54.442Z,15.05
2022-12-18T03:18:36.997Z,17.30
2022-12-18T03:21:07.661Z,16.23
2022-12-18T03:23:44.735Z,15.73
2022-12-18T03:26:17.360Z,16.73
2022-12-18T03:28:52.394Z,15.05
2022-12-18T03:31:23.710Z,15.93
2022-12-18T03:36:24.856Z,15.68
2022-12-18T03:38:52.687Z,15.70
2022-12-18T03:41:46.101Z,14.70
2022-12-18T03:44:40.455Z,15.30
2022-12-18T03:47:20.772Z,14.23
2022-12-18T03:49:50.523Z,14.77
2022-12-18T03:52:26.468Z,13.23
2022-12-18T03:54:56.236Z,16.63
2022-12-18T03:57:28.264Z,14.10
2022-12-18T04:00:12.425Z,15.60
2022-12-18T04:02:54.167Z,14.35
2022-12-18T04:05:23.155Z,13.70
2022-12-18T04:07:52.935Z,14.95
2022-12-18T04:10:20.352Z,14.05
2022-12-18T04:12:47.568Z,14.32
2022-12-18T04:15:14.821Z,16.13
2022-12-18T04:17:50.460Z,15.80
2022-12-18T04:20:18.443Z,14.45
2022-12-18T04:22:46.010Z,17.10
2022-12-18T04:25:13.428Z,14.00
2022-12-18T04:27:40.750Z,14.52
2022-12-18T04:30:09.336Z,13.75
2022-12-18T04:32:36.743Z,14.20
2022-12-18T04:35:05.295Z,16.45
2022-12-18T04:37:32.428Z,13.18
2022-12-18T04:40:00.098Z,16.30
2022-12-18T04:42:27.109Z,15.35
2022-12-18T04:44:54.106Z,16.33
2022-12-18T04:47:21.116Z,14.57
2022-12-18T04:49:48.123Z,15.23
2022-12-18T04:52:15.260Z,15.57
2022-12-18T04:54:42.265Z,15.88
2022-12-18T04:57:09.299Z,15.20
2022-12-18T04:59:36.776Z,14.55
2022-12-18T05:02:03.999Z,14.93
2022-12-18T05:04:31.113Z,14.98
2022-12-18T05:06:58.252Z,17.52
2022-12-18T05:09:25.286Z,15.40
2022-12-18T05:11:52.361Z,16.77
2022-12-18T05:14:19.583Z,14.88
2022-12-18T05:16:46.636Z,16.83
2022-12-18T05:19:13.812Z,14.95
2022-12-18T05:21:41.392Z,15.93
2022-12-18T05:24:08.833Z,16.10
2022-12-18T05:26:35.836Z,16.42
2022-12-18T05:29:02.995Z,16.20
2022-12-18T05:31:32.411Z,15.15
2022-12-18T05:34:03.040Z,14.45
2022-12-18T05:36:30.043Z,15.77
2022-12-18T05:38:57.117Z,16.83
2022-12-18T05:41:24.193Z,16.88
2022-12-18T05:43:51.243Z,15.10
2022-12-18T05:46:19.206Z,16.23
2022-12-18T05:48:46.977Z,15.10
2022-12-18T05:51:17.695Z,15.98
2022-12-18T05:53:45.016Z,15.90
2022-12-18T05:56:18.617Z,16.65
2022-12-18T05:58:46.227Z,15.73
2022-12-18T06:01:21.210Z,15.57
2022-12-18T06:03:48.399Z,16.15
2022-12-18T06:06:25.927Z,14.57
2022-12-18T06:08:54.368Z,14.75
2022-12-18T06:11:25.390Z,15.75
2022-12-18T06:16:27.264Z,14.35
2022-12-18T06:18:56.976Z,13.23
2022-12-18T06:21:24.108Z,13.80
2022-12-18T06:23:51.154Z,15.45
2022-12-18T06:26:20.179Z,15.48
2022-12-18T06:28:50.503Z,15.85
2022-12-18T06:31:17.766Z,17.60
2022-12-18T06:33:44.817Z,14.02
2022-12-18T06:36:14.176Z,15.88
2022-12-18T06:38:44.138Z,14.18
2022-12-18T06:41:16.494Z,15.10
2022-12-18T06:43:44.829Z,15.40
2022-12-18T06:46:13.195Z,13.40
2022-12-18T06:48:40.646Z,14.90
2022-12-18T06:51:10.014Z,14.63
2022-12-18T06:53:37.337Z,15.60
2022-12-18T06:56:11.154Z,16.73
2022-12-18T06:58:39.996Z,15.73
2022-12-18T07:01:12.096Z,15.93
2022-12-18T07:03:42.196Z,14.38
2022-12-18T07:06:21.772Z,15.55
2022-12-18T07:08:56.030Z,15.93
2022-12-18T07:11:23.915Z,14.20
2022-12-18T07:13:50.978Z,15.15
2022-12-18T07:16:24.860Z,15.82
2022-12-18T07:18:53.668Z,14.13
2022-12-18T07:21:22.073Z,16.10
2022-12-18T07:23:50.883Z,17.35
2022-12-18T07:26:20.801Z,17.65
2022-12-18T07:28:48.773Z,14.40
2022-12-18T07:31:21.511Z,17.33
2022-12-18T07:33:49.270Z,16.65
2022-12-18T07:36:16.589Z,14.98
2022-12-18T07:38:54.001Z,15.32
2022-12-18T07:41:21.739Z,17.92
2022-12-18T07:43:49.100Z,17.30
2022-12-18T07:46:17.706Z,17.23
2022-12-18T07:48:50.235Z,17.05
2022-12-18T07:51:19.388Z,15.38
2022-12-18T07:53:46.835Z,15.25
2022-12-18T07:56:27.129Z,17.15
2022-12-18T07:58:55.373Z,17.25
2022-12-18T08:01:22.644Z,14.77
2022-12-18T08:03:52.521Z,15.18
2022-12-18T08:06:24.283Z,15.02
2022-12-18T08:09:00.200Z,15.65
2022-12-18T08:11:29.733Z,14.23
2022-12-18T08:13:57.875Z,15.55
2022-12-18T08:16:25.076Z,14.10
2022-12-18T08:18:54.647Z,16.25
2022-12-18T08:21:31.808Z,15.23
2022-12-18T08:24:01.856Z,13.65
2022-12-18T08:26:39.939Z,14.43
2022-12-18T08:29:07.044Z,14.48
2022-12-18T08:31:36.525Z,14.45
2022-12-18T08:34:09.278Z,12.23
2022-12-18T08:36:37.098Z,14.88
2022-12-18T08:39:04.193Z,14.18
2022-12-18T08:41:31.986Z,16.00
2022-12-18T08:44:19.630Z,15.45
2022-12-18T08:46:46.793Z,13.48
2022-12-18T08:49:14.130Z,14.48
2022-12-18T08:51:41.285Z,14.63
2022-12-18T08:54:18.054Z,14.70
2022-12-18T08:56:47.498Z,14.40
2022-12-18T08:59:20.152Z,16.63
2022-12-18T09:01:49.205Z,13.50
2022-12-18T09:04:16.585Z,14.63
2022-12-18T09:06:43.587Z,14.55
2022-12-18T09:09:11.912Z,13.98
2022-12-18T09:11:39.313Z,17.20
2022-12-18T09:14:06.771Z,15.25
2022-12-18T09:16:36.133Z,14.25
2022-12-18T09:19:05.695Z,15.18
2022-12-18T09:21:37.444Z,14.70
2022-12-18T09:24:09.108Z,14.35
2022-12-18T09:26:37.260Z,15.95
2022-12-18T09:29:05.517Z,16.63
2022-12-18T09:31:32.721Z,15.32
2022-12-18T09:33:59.919Z,15.77
2022-12-18T09:36:29.998Z,15.20
2022-12-18T09:38:57.047Z,15.80
2022-12-18T09:41:47.086Z,16.13
2022-12-18T09:44:26.074Z,14.40
2022-12-18T09:47:33.734Z,14.73
2022-12-18T09:50:34.273Z,13.00
2022-12-18T09:53:07.901Z,14.77
2022-12-18T09:55:43.533Z,15.52
2022-12-18T09:58:11.257Z,14.88
2022-12-18T10:00:38.355Z,15.35
2022-12-18T10:03:13.598Z,17.05
2022-12-18T10:06:08.216Z,14.70
2022-12-18T10:08:54.879Z,14.30
2022-12-18T10:11:54.255Z,12.85
2022-12-18T10:14:48.551Z,12.23
2022-12-18T10:17:53.300Z,13.48
2022-12-18T10:20:49.633Z,11.70
2022-12-18T10:23:48.038Z,12.70
2022-12-18T10:26:15.717Z,11.85
2022-12-18T10:28:47.830Z,13.23
2022-12-18T10:31:20.512Z,12.35
2022-12-18T10:33:47.857Z,14.20
2022-12-18T10:36:15.344Z,13.45
2022-12-18T10:38:43.257Z,14.80
2022-12-18T10:41:26.719Z,12.90
2022-12-18T10:44:29.217Z,13.32
2022-12-18T10:47:10.172Z,13.32
2022-12-18T10:49:52.457Z,11.30
2022-12-18T10:52:26.257Z,14.93
2022-12-18T10:55:06.987Z,12.80
2022-12-18T10:57:36.668Z,13.30
2022-12-18T11:00:26.036Z,12.50
2022-12-18T11:02:53.920Z,14.40
2022-12-18T11:05:33.945Z,12.55
2022-12-18T11:08:04.473Z,12.60
2022-12-18T11:10:43.034Z,12.60
2022-12-18T11:13:27.492Z,15.32
2022-12-18T11:15:54.653Z,13.30
2022-12-18T11:18:33.187Z,14.32
2022-12-18T11:21:08.636Z,13.68
2022-12-18T11:23:37.634Z,13.18
2022-12-18T11:26:07.066Z,14.00
2022-12-18T11:28:47.613Z,14.13
2022-12-18T11:31:29.233Z,12.65
2022-12-18T11:36:50.843Z,13.15
2022-12-18T11:39:24.925Z,11.32
2022-12-18T11:42:12.748Z,12.85
2022-12-18T11:44:52.940Z,12.90
2022-12-18T11:47:40.858Z,13.13
2022-12-18T11:50:53.346Z,14.10
2022-12-18T11:53:21.562Z,13.48
2022-12-18T11:55:56.104Z,13.32
2022-12-18T11:58:35.075Z,12.90
2022-12-18T12:01:20.042Z,12.45
2022-12-18T12:04:38.708Z,12.07
2022-12-18T12:07:57.893Z,12.00
2022-12-18T12:10:36.676Z,11.13
2022-12-18T12:13:46.630Z,10.25
2022-12-18T12:16:30.960Z,12.18
2022-12-18T12:19:18.821Z,12.02
2022-12-18T12:22:41.268Z,12.68
2022-12-18T12:25:30.792Z,10.23
2022-12-18T12:28:24.243Z,12.60
2022-12-18T12:31:04.271Z,11.20
2022-12-18T12:34:08.738Z,10.50
2022-12-18T12:37:21.923Z,11.35
2022-12-18T12:39:49.348Z,10.65
2022-12-18T12:42:49.695Z,11.57
2022-12-18T12:45:29.712Z,11.90
2022-12-18T12:47:59.249Z,12.75
2022-12-18T12:50:27.134Z,11.18
2022-12-18T12:53:00.598Z,10.60
2022-12-18T12:55:29.928Z,12.32
2022-12-18T12:58:17.691Z,12.23
2022-12-18T13:01:09.913Z,11.93
2022-12-18T13:04:15.433Z,11.48
2022-12-18T13:07:04.639Z,12.45
2022-12-18T13:09:36.881Z,10.73
2022-12-18T13:12:30.298Z,10.65
2022-12-18T13:15:42.456Z,11.18
2022-12-18T13:18:09.528Z,11.30
2022-12-18T13:20:52.241Z,10.80
2022-12-18T13:23:41.123Z,11.25
2022-12-18T13:26:11.412Z,10.23
2022-12-18T13:28:48.029Z,12.07
2022-12-18T13:31:43.394Z,10.63
2022-12-18T13:34:33.514Z,11.27
2022-12-18T13:37:46.406Z,11.73
2022-12-18T13:41:05.772Z,10.73
2022-12-18T13:43:48.788Z,12.60
2022-12-18T13:46:31.754Z,11.18
2022-12-18T13:49:24.295Z,11.57
2022-12-18T13:51:55.822Z,10.88
2022-12-18T13:54:38.282Z,11.90
2022-12-18T13:57:11.317Z,11.95
2022-12-18T13:59:40.667Z,10.98
2022-12-18T14:02:18.274Z,12.25
2022-12-18T14:04:50.561Z,11.95
2022-12-18T14:10:06.446Z,9.98
2022-12-18T14:13:01.134Z,10.80
2022-12-18T14:15:42.064Z,10.80
2022-12-18T14:18:32.725Z,10.40
2022-12-18T14:21:02.684Z,10.40
2022-12-18T14:23:39.890Z,9.27
2022-12-18T14:26:30.729Z,11.15
2022-12-18T14:29:02.776Z,9.48
2022-12-18T14:31:33.238Z,9.50
2022-12-18T14:34:00.239Z,9.10
2022-12-18T14:36:30.854Z,9.43
2022-12-18T14:39:03.709Z,10.97
2022-12-18T14:41:34.112Z,9.40
2022-12-18T14:44:08.245Z,10.98
2022-12-18T14:46:41.330Z,10.73
2022-12-18T14:49:34.912Z,10.35
2022-12-18T14:52:06.677Z,10.02
2022-12-18T14:54:38.324Z,9.52
2022-12-18T14:57:16.251Z,10.65
2022-12-18T14:59:43.379Z,10.60
2022-12-18T15:02:27.290Z,10.43
2022-12-18T15:05:22.324Z,11.98
2022-12-18T15:07:53.685Z,9.27
2022-12-18T15:10:24.948Z,10.88
2022-12-18T15:13:10.770Z,10.68
2022-12-18T15:15:38.075Z,11.27
2022-12-18T15:18:22.675Z,11.02
2022-12-18T15:21:05.292Z,10.43
2022-12-18T15:23:54.199Z,9.75
2022-12-18T15:26:23.203Z,10.07
2022-12-18T15:28:59.455Z,11.00
2022-12-18T15:31:37.579Z,11.30
2022-12-18T15:34:15.057Z,11.88
2022-12-18T15:36:44.200Z,10.85
2022-12-18T15:39:14.250Z,11.60
2022-12-18T15:41:41.651Z,11.38
2022-12-18T15:44:26.536Z,12.73
2022-12-18T15:46:53.882Z,10.10
2022-12-18T15:49:21.096Z,11.25
2022-12-18T15:51:54.530Z,11.27
2022-12-18T15:54:44.863Z,12.52
2022-12-18T15:57:25.031Z,9.82
2022-12-18T15:59:55.148Z,10.45
2022-12-18T16:02:25.993Z,10.43
2022-12-18T16:04:56.346Z,10.85
2022-12-18T16:07:23.857Z,10.23
2022-12-18T16:09:52.183Z,11.70
2022-12-18T16:12:26.147Z,9.05
2022-12-18T16:14:53.287Z,11.98
2022-12-18T16:17:22.269Z,11.43
2022-12-18T16:19:49.349Z,11.43
2022-12-18T16:22:22.401Z,11.25
2022-12-18T16:24:51.298Z,9.85
2022-12-18T16:27:18.435Z,13.60
2022-12-18T16:29:46.685Z,16.13
2022-12-18T16:32:17.274Z,26.10
2022-12-18T16:34:47.902Z,30.63
2022-12-18T16:37:16.886Z,26.25
2022-12-18T16:39:44.303Z,19.85
2022-12-18T16:42:20.961Z,16.40
2022-12-18T16:44:49.926Z,14.15
2022-12-18T16:47:18.268Z,11.25
2022-12-18T16:49:47.290Z,13.90
2022-12-18T16:52:16.185Z,12.70
2022-12-18T16:54:46.422Z,8.00
2022-12-18T16:57:16.382Z,11.18
2022-12-18T16:59:43.699Z,11.35
2022-12-18T17:02:23.536Z,14.38
2022-12-18T17:04:55.194Z,11.55
2022-12-18T17:07:22.337Z,11.77
2022-12-18T17:09:52.400Z,11.85
2022-12-18T17:12:21.024Z,13.15
2022-12-18T17:14:50.527Z,12.38
2022-12-18T17:17:22.708Z,11.45
2022-12-18T17:19:52.526Z,13.27
2022-12-18T17:22:20.983Z,11.90
2022-12-18T17:24:48.275Z,13.95
2022-12-18T17:27:16.054Z,13.27
2022-12-18T17:29:47.691Z,14.18
2022-12-18T17:32:19.510Z,11.77
2022-12-18T17:34:49.563Z,13.00
2022-12-18T17:37:19.338Z,12.70
2022-12-18T17:39:46.723Z,14.32
2022-12-18T17:42:16.419Z,12.70
2022-12-18T17:44:45.173Z,13.93
2022-12-18T17:47:14.892Z,12.43
2022-12-18T17:49:47.790Z,14.55
2022-12-18T17:52:20.046Z,14.52
2022-12-18T17:54:49.610Z,13.65
2022-12-18T17:57:17.275Z,14.40
2022-12-18T17:59:44.834Z,15.45
2022-12-18T18:02:12.450Z,15.30
2022-12-18T18:04:39.802Z,13.60
2022-12-18T18:07:06.871Z,15.98
2022-12-18T18:09:34.002Z,15.80
2022-12-18T18:12:22.654Z,16.40
2022-12-18T18:14:50.004Z,13.77
2022-12-18T18:17:17.978Z,14.23
2022-12-18T18:19:49.618Z,16.20
2022-12-18T18:22:18.027Z,17.73
2022-12-18T18:24:47.211Z,18.38
2022-12-18T18:27:16.131Z,15.88
2022-12-18T18:29:45.429Z,16.90
2022-12-18T18:32:12.622Z,16.52
2022-12-18T18:34:39.973Z,15.02
2022-12-18T18:37:07.082Z,15.40
2022-12-18T18:39:34.435Z,14.68
2022-12-18T18:42:03.639Z,16.85
2022-12-18T18:44:30.826Z,14.90
2022-12-18T18:46:59.040Z,16.98
2022-12-18T18:49:27.901Z,17.52
2022-12-18T18:51:56.957Z,16.02
2022-12-18T18:54:25.539Z,15.13
2022-12-18T18:59:40.506Z,14.95
2022-12-18T19:02:11.634Z,14.55
2022-12-18T19:07:12.973Z,14.45
2022-12-18T19:09:42.132Z,14.25
2022-12-18T19:12:28.680Z,17.92
2022-12-18T19:14:56.049Z,15.45
2022-12-18T19:17:28.062Z,13.75
2022-12-18T19:19:56.893Z,14.57
2022-12-18T19:22:24.284Z,14.00
2022-12-18T19:24:51.403Z,14.63
2022-12-18T19:27:18.439Z,14.40
2022-12-18T19:29:45.448Z,15.70
2022-12-18T19:32:12.596Z,15.55
2022-12-18T19:34:40.233Z,16.45
2022-12-18T19:37:07.430Z,16.20
2022-12-18T19:39:34.692Z,13.63
2022-12-18T19:42:02.356Z,14.35
2022-12-18T19:44:29.537Z,16.33
2022-12-18T19:46:56.569Z,14.23
2022-12-18T19:49:23.538Z,15.38
2022-12-18T19:51:51.259Z,14.85
2022-12-18T19:54:18.450Z,14.10
2022-12-18T19:56:46.086Z,15.40
2022-12-18T19:59:13.924Z,15.70
2022-12-18T20:01:41.583Z,14.77
2022-12-18T20:04:09.060Z,15.30
2022-12-18T20:06:52.400Z,15.00
2022-12-18T20:09:20.732Z,16.67
2022-12-18T20:11:49.316Z,20.23
2022-12-18T20:14:19.671Z,18.98
2022-12-18T20:16:52.323Z,15.95
2022-12-18T20:19:20.775Z,15.30
2022-12-18T20:21:48.209Z,15.85
2022-12-18T20:24:17.362Z,15.55
2022-12-18T20:26:44.357Z,15.65
2022-12-18T20:29:11.432Z,15.65
2022-12-18T20:31:38.562Z,16.23
2022-12-18T20:34:06.213Z,16.98
2022-12-18T20:36:36.271Z,17.05
2022-12-18T20:39:06.433Z,15.80
2022-12-18T20:41:38.215Z,16.45
2022-12-18T20:44:21.686Z,18.38
2022-12-18T20:46:56.397Z,15.95
2022-12-18T20:49:25.927Z,18.50
2022-12-18T20:51:56.489Z,16.38
2022-12-18T20:54:26.533Z,18.73
2022-12-18T20:56:53.724Z,17.75
2022-12-18T20:59:23.162Z,19.63
2022-12-18T21:01:52.134Z,17.42
2022-12-18T21:04:23.256Z,17.08
2022-12-18T21:06:55.744Z,15.45
2022-12-18T21:09:27.706Z,17.70
2022-12-18T21:12:16.965Z,16.27
2022-12-18T21:14:44.941Z,16.23
2022-12-18T21:17:13.803Z,16.40
2022-12-18T21:19:40.925Z,16.42
2022-12-18T21:22:08.446Z,17.23
2022-12-18T21:24:35.630Z,17.92
2022-12-18T21:27:02.739Z,17.92
2022-12-18T21:29:30.175Z,14.93
2022-12-18T21:31:57.508Z,17.02
2022-12-18T21:34:28.525Z,16.75
2022-12-18T21:36:57.983Z,14.77
2022-12-18T21:39:27.553Z,16.92
2022-12-18T21:42:14.427Z,16.95
2022-12-18T21:44:42.526Z,18.75
2022-12-18T21:47:22.821Z,15.20
2022-12-18T21:49:52.200Z,17.77
2022-12-18T21:52:20.067Z,19.45
2022-12-18T21:54:49.191Z,16.70
2022-12-18T21:57:16.240Z,16.65
2022-12-18T21:59:43.756Z,18.15
2022-12-18T22:02:15.621Z,16.85
2022-12-18T22:04:44.608Z,16.20
2022-12-18T22:07:13.692Z,17.75
2022-12-18T22:09:41.018Z,16.67
2022-12-18T22:12:09.221Z,19.58
2022-12-18T22:14:36.770Z,18.35
2022-12-18T22:17:04.133Z,17.40
2022-12-18T22:19:33.413Z,17.73
2022-12-18T22:22:02.721Z,15.77
2022-12-18T22:24:29.908Z,17.63
2022-12-18T22:27:02.040Z,16.00
2022-12-18T22:29:48.364Z,17.00
2022-12-18T22:32:22.116Z,17.50
2022-12-18T22:35:09.499Z,17.00
2022-12-18T22:37:39.948Z,17.40
2022-12-18T22:43:23.539Z,15.40
2022-12-18T22:45:50.572Z,15.70
2022-12-18T22:48:17.775Z,16.17
2022-12-18T22:50:45.448Z,13.98
2022-12-18T22:53:12.459Z,16.30
2022-12-18T22:55:39.934Z,17.90
2022-12-18T22:58:06.976Z,15.70
2022-12-18T23:00:34.004Z,16.27
2022-12-18T23:03:01.741Z,14.95
2022-12-18T23:05:30.858Z,16.77
2022-12-18T23:07:58.854Z,17.38
2022-12-18T23:10:26.449Z,17.08
2022-12-18T23:12:53.542Z,17.13
2022-12-18T23:15:27.946Z,16.23
2022-12-18T23:17:56.789Z,16.15
2022-12-18T23:20:23.999Z,16.42
2022-12-18T23:22:51.173Z,16.60
2022-12-18T23:25:21.077Z,16.85
2022-12-18T23:27:48.166Z,17.65
2022-12-18T23:30:15.694Z,16.48
2022-12-18T23:32:42.863Z,15.90
2022-12-18T23:35:10.004Z,15.60
2022-12-18T23:38:03.687Z,17.17
2022-12-18T23:40:27.530Z,16.75
2022-12-18T23:42:54.655Z,14.32
2022-12-18T23:45:21.731Z,17.00
2022-12-18T23:47:50.927Z,15.73
2022-12-18T23:50:18.599Z,16.17
2022-12-18T23:52:45.632Z,17.52
2022-12-18T23:55:12.643Z,18.17
2022-12-18T23:57:39.655Z,16.15
